sensor_id;sensor_type;location;lat;lon;timestamp;P1;durP1;ratioP1;P2;durP2;ratioP2
28844;SDS011;15976;47.938;7.758;2023-06-04T00:00:27;10.05;;;7.63;;
28844;SDS011;15976;47.938;7.758;2023-06-04T00:02:54;13.25;;;7.68;;
28844;SDS011;15976;47.938;7.758;2023-06-04T00:05:21;10.15;;;8.10;;
28844;SDS011;15976;47.938;7.758;2023-06-04T00:07:52;11.10;;;7.63;;
28844;SDS011;15976;47.938;7.758;2023-06-04T00:10:19;11.05;;;7.00;;
28844;SDS011;15976;47.938;7.758;2023-06-04T00:12:47;9.52;;;7.43;;
28844;SDS011;15976;47.938;7.758;2023-06-04T00:15:15;10.32;;;7.93;;
28844;SDS011;15976;47.938;7.758;2023-06-04T00:17:43;10.45;;;7.65;;
28844;SDS011;15976;47.938;7.758;2023-06-04T00:20:10;9.60;;;7.63;;
28844;SDS011;15976;47.938;7.758;2023-06-04T00:22:38;9.48;;;7.47;;
28844;SDS011;15976;47.938;7.758;2023-06-04T00:25:11;9.85;;;7.80;;
28844;SDS011;15976;47.938;7.758;2023-06-04T00:27:38;9.20;;;7.45;;
28844;SDS011;15976;47.938;7.758;2023-06-04T00:30:06;11.95;;;8.00;;
28844;SDS011;15976;47.938;7.758;2023-06-04T00:32:33;8.52;;;7.55;;
28844;SDS011;15976;47.938;7.758;2023-06-04T00:35:01;9.73;;;7.57;;
28844;SDS011;15976;47.938;7.758;2023-06-04T00:37:28;12.27;;;7.93;;
28844;SDS011;15976;47.938;7.758;2023-06-04T00:39:56;10.90;;;7.70;;
28844;SDS011;15976;47.938;7.758;2023-06-04T00:42:23;9.57;;;8.13;;
28844;SDS011;15976;47.938;7.758;2023-06-04T00:44:50;9.63;;;7.90;;
28844;SDS011;15976;47.938;7.758;2023-06-04T00:47:18;11.57;;;8.55;;
28844;SDS011;15976;47.938;7.758;2023-06-04T00:49:47;9.18;;;8.18;;
28844;SDS011;15976;47.938;7.758;2023-06-04T00:52:15;11.73;;;8.10;;
28844;SDS011;15976;47.938;7.758;2023-06-04T00:54:42;11.40;;;8.27;;
28844;SDS011;15976;47.938;7.758;2023-06-04T00:57:09;13.65;;;8.40;;
28844;SDS011;15976;47.938;7.758;2023-06-04T00:59:37;10.32;;;8.30;;
28844;SDS011;15976;47.938;7.758;2023-06-04T01:02:16;10.63;;;8.93;;
28844;SDS011;15976;47.938;7.758;2023-06-04T01:05:00;11.93;;;8.30;;
28844;SDS011;15976;47.938;7.758;2023-06-04T01:07:36;16.67;;;8.85;;
28844;SDS011;15976;47.938;7.758;2023-06-04T01:10:06;13.13;;;9.00;;
28844;SDS011;15976;47.938;7.758;2023-06-04T01:12:34;12.20;;;8.77;;
28844;SDS011;15976;47.938;7.758;2023-06-04T01:15:01;12.68;;;9.27;;
28844;SDS011;15976;47.938;7.758;2023-06-04T01:17:31;12.70;;;8.73;;
28844;SDS011;15976;47.938;7.758;2023-06-04T01:27:55;10.60;;;8.18;;
28844;SDS011;15976;47.938;7.758;2023-06-04T01:30:25;10.65;;;8.70;;
28844;SDS011;15976;47.938;7.758;2023-06-04T01:33:00;12.95;;;8.88;;
28844;SDS011;15976;47.938;7.758;2023-06-04T01:35:29;12.82;;;9.10;;
28844;SDS011;15976;47.938;7.758;2023-06-04T01:37:57;17.10;;;9.43;;
28844;SDS011;15976;47.938;7.758;2023-06-04T01:40:25;11.30;;;9.07;;
28844;SDS011;15976;47.938;7.758;2023-06-04T01:42:53;10.98;;;8.98;;
28844;SDS011;15976;47.938;7.758;2023-06-04T01:45:21;11.45;;;8.88;;
28844;SDS011;15976;47.938;7.758;2023-06-04T01:47:49;14.30;;;9.57;;
28844;SDS011;15976;47.938;7.758;2023-06-04T01:50:16;12.75;;;8.80;;
28844;SDS011;15976;47.938;7.758;2023-06-04T01:52:44;13.02;;;9.32;;
28844;SDS011;15976;47.938;7.758;2023-06-04T01:55:12;12.27;;;8.77;;
28844;SDS011;15976;47.938;7.758;2023-06-04T01:57:41;11.82;;;8.50;;
28844;SDS011;15976;47.938;7.758;2023-06-04T02:00:11;12.65;;;9.38;;
28844;SDS011;15976;47.938;7.758;2023-06-04T02:02:46;10.80;;;8.65;;
28844;SDS011;15976;47.938;7.758;2023-06-04T02:05:16;11.20;;;8.98;;
28844;SDS011;15976;47.938;7.758;2023-06-04T02:07:45;12.57;;;9.55;;
28844;SDS011;15976;47.938;7.758;2023-06-04T02:10:16;10.13;;;8.23;;
28844;SDS011;15976;47.938;7.758;2023-06-04T02:12:56;13.50;;;9.75;;
28844;SDS011;15976;47.938;7.758;2023-06-04T02:15:25;16.23;;;9.35;;
28844;SDS011;15976;47.938;7.758;2023-06-04T02:17:57;12.02;;;9.13;;
28844;SDS011;15976;47.938;7.758;2023-06-04T02:20:26;9.93;;;8.90;;
28844;SDS011;15976;47.938;7.758;2023-06-04T02:22:54;11.70;;;9.25;;
28844;SDS011;15976;47.938;7.758;2023-06-04T02:25:22;12.70;;;9.35;;
28844;SDS011;15976;47.938;7.758;2023-06-04T02:27:50;11.55;;;9.55;;
28844;SDS011;15976;47.938;7.758;2023-06-04T02:30:17;12.00;;;9.52;;
28844;SDS011;15976;47.938;7.758;2023-06-04T02:32:45;13.07;;;9.35;;
28844;SDS011;15976;47.938;7.758;2023-06-04T02:35:18;12.93;;;9.52;;
28844;SDS011;15976;47.938;7.758;2023-06-04T02:37:47;12.00;;;9.00;;
28844;SDS011;15976;47.938;7.758;2023-06-04T02:40:15;11.65;;;9.13;;
28844;SDS011;15976;47.938;7.758;2023-06-04T02:42:43;13.18;;;9.45;;
28844;SDS011;15976;47.938;7.758;2023-06-04T02:45:10;11.45;;;8.95;;
28844;SDS011;15976;47.938;7.758;2023-06-04T02:47:37;12.82;;;8.98;;
28844;SDS011;15976;47.938;7.758;2023-06-04T02:50:05;13.18;;;9.57;;
28844;SDS011;15976;47.938;7.758;2023-06-04T02:52:32;11.70;;;9.48;;
28844;SDS011;15976;47.938;7.758;2023-06-04T02:55:04;13.32;;;9.55;;
28844;SDS011;15976;47.938;7.758;2023-06-04T02:57:33;12.27;;;9.20;;
28844;SDS011;15976;47.938;7.758;2023-06-04T03:00:02;13.48;;;9.80;;
28844;SDS011;15976;47.938;7.758;2023-06-04T03:02:39;12.95;;;9.82;;
28844;SDS011;15976;47.938;7.758;2023-06-04T03:05:10;14.35;;;10.73;;
28844;SDS011;15976;47.938;7.758;2023-06-04T03:07:41;15.20;;;10.13;;
28844;SDS011;15976;47.938;7.758;2023-06-04T03:10:10;11.80;;;9.43;;
28844;SDS011;15976;47.938;7.758;2023-06-04T03:12:39;14.40;;;9.38;;
28844;SDS011;15976;47.938;7.758;2023-06-04T03:15:07;12.25;;;9.77;;
28844;SDS011;15976;47.938;7.758;2023-06-04T03:17:36;13.55;;;9.98;;
28844;SDS011;15976;47.938;7.758;2023-06-04T03:20:04;13.05;;;9.48;;
28844;SDS011;15976;47.938;7.758;2023-06-04T03:22:33;12.63;;;9.57;;
28844;SDS011;15976;47.938;7.758;2023-06-04T03:25:02;13.07;;;9.68;;
28844;SDS011;15976;47.938;7.758;2023-06-04T03:27:31;11.80;;;9.32;;
28844;SDS011;15976;47.938;7.758;2023-06-04T03:29:59;11.85;;;9.95;;
28844;SDS011;15976;47.938;7.758;2023-06-04T03:32:34;11.68;;;9.75;;
28844;SDS011;15976;47.938;7.758;2023-06-04T03:35:02;12.20;;;9.18;;
28844;SDS011;15976;47.938;7.758;2023-06-04T03:37:31;11.57;;;9.35;;
28844;SDS011;15976;47.938;7.758;2023-06-04T03:40:00;15.32;;;9.48;;
28844;SDS011;15976;47.938;7.758;2023-06-04T03:42:35;11.13;;;9.07;;
28844;SDS011;15976;47.938;7.758;2023-06-04T03:45:02;13.77;;;9.55;;
28844;SDS011;15976;47.938;7.758;2023-06-04T03:47:30;15.25;;;9.90;;
28844;SDS011;15976;47.938;7.758;2023-06-04T03:49:58;12.60;;;9.10;;
28844;SDS011;15976;47.938;7.758;2023-06-04T03:52:25;11.98;;;9.60;;
28844;SDS011;15976;47.938;7.758;2023-06-04T03:54:54;10.65;;;9.43;;
28844;SDS011;15976;47.938;7.758;2023-06-04T03:57:22;12.80;;;9.60;;
28844;SDS011;15976;47.938;7.758;2023-06-04T03:59:50;14.25;;;9.35;;
28844;SDS011;15976;47.938;7.758;2023-06-04T04:02:18;12.10;;;9.07;;
28844;SDS011;15976;47.938;7.758;2023-06-04T04:04:47;12.77;;;9.38;;
28844;SDS011;15976;47.938;7.758;2023-06-04T04:07:14;13.73;;;8.73;;
28844;SDS011;15976;47.938;7.758;2023-06-04T04:09:43;14.23;;;8.80;;
28844;SDS011;15976;47.938;7.758;2023-06-04T04:12:11;12.70;;;8.73;;
28844;SDS011;15976;47.938;7.758;2023-06-04T04:14:38;11.45;;;8.48;;
28844;SDS011;15976;47.938;7.758;2023-06-04T04:17:06;15.20;;;9.30;;
28844;SDS011;15976;47.938;7.758;2023-06-04T04:19:34;10.85;;;9.02;;
28844;SDS011;15976;47.938;7.758;2023-06-04T04:22:01;10.88;;;8.02;;
28844;SDS011;15976;47.938;7.758;2023-06-04T04:24:30;13.20;;;8.18;;
28844;SDS011;15976;47.938;7.758;2023-06-04T04:29:31;13.15;;;7.30;;
28844;SDS011;15976;47.938;7.758;2023-06-04T04:32:03;13.47;;;8.80;;
28844;SDS011;15976;47.938;7.758;2023-06-04T04:34:50;11.75;;;9.07;;
28844;SDS011;15976;47.938;7.758;2023-06-04T04:37:20;16.70;;;9.73;;
28844;SDS011;15976;47.938;7.758;2023-06-04T04:39:50;11.35;;;8.82;;
28844;SDS011;15976;47.938;7.758;2023-06-04T04:42:21;13.02;;;8.38;;
28844;SDS011;15976;47.938;7.758;2023-06-04T04:44:49;13.70;;;7.45;;
28844;SDS011;15976;47.938;7.758;2023-06-04T04:47:19;10.60;;;7.35;;
28844;SDS011;15976;47.938;7.758;2023-06-04T04:49:47;9.27;;;6.72;;
28844;SDS011;15976;47.938;7.758;2023-06-04T04:52:16;12.00;;;6.85;;
28844;SDS011;15976;47.938;7.758;2023-06-04T04:54:45;12.57;;;7.05;;
28844;SDS011;15976;47.938;7.758;2023-06-04T04:57:12;9.70;;;6.45;;
28844;SDS011;15976;47.938;7.758;2023-06-04T04:59:44;12.30;;;6.55;;
28844;SDS011;15976;47.938;7.758;2023-06-04T05:02:12;8.68;;;6.45;;
28844;SDS011;15976;47.938;7.758;2023-06-04T05:04:39;11.15;;;7.03;;
28844;SDS011;15976;47.938;7.758;2023-06-04T05:07:07;8.40;;;6.75;;
28844;SDS011;15976;47.938;7.758;2023-06-04T05:09:34;14.02;;;7.10;;
28844;SDS011;15976;47.938;7.758;2023-06-04T05:12:02;7.95;;;6.35;;
28844;SDS011;15976;47.938;7.758;2023-06-04T05:14:30;11.57;;;6.70;;
28844;SDS011;15976;47.938;7.758;2023-06-04T05:17:01;9.98;;;6.75;;
28844;SDS011;15976;47.938;7.758;2023-06-04T05:19:34;12.38;;;6.65;;
28844;SDS011;15976;47.938;7.758;2023-06-04T05:22:01;13.23;;;6.53;;
28844;SDS011;15976;47.938;7.758;2023-06-04T05:24:29;11.18;;;6.78;;
28844;SDS011;15976;47.938;7.758;2023-06-04T05:26:59;11.82;;;6.63;;
28844;SDS011;15976;47.938;7.758;2023-06-04T05:29:26;9.68;;;5.80;;
28844;SDS011;15976;47.938;7.758;2023-06-04T05:31:53;8.88;;;6.43;;
28844;SDS011;15976;47.938;7.758;2023-06-04T05:34:22;10.65;;;5.65;;
28844;SDS011;15976;47.938;7.758;2023-06-04T05:36:50;9.60;;;5.30;;
28844;SDS011;15976;47.938;7.758;2023-06-04T05:39:19;12.00;;;6.18;;
28844;SDS011;15976;47.938;7.758;2023-06-04T05:41:55;12.35;;;5.68;;
28844;SDS011;15976;47.938;7.758;2023-06-04T05:44:23;10.15;;;6.38;;
28844;SDS011;15976;47.938;7.758;2023-06-04T05:46:50;8.25;;;5.63;;
28844;SDS011;15976;47.938;7.758;2023-06-04T05:49:18;8.63;;;6.10;;
28844;SDS011;15976;47.938;7.758;2023-06-04T05:51:46;11.32;;;5.97;;
28844;SDS011;15976;47.938;7.758;2023-06-04T05:54:13;9.43;;;5.75;;
28844;SDS011;15976;47.938;7.758;2023-06-04T05:56:42;11.00;;;6.60;;
28844;SDS011;15976;47.938;7.758;2023-06-04T05:59:17;8.27;;;6.40;;
28844;SDS011;15976;47.938;7.758;2023-06-04T06:01:51;8.75;;;5.38;;
28844;SDS011;15976;47.938;7.758;2023-06-04T06:04:45;9.85;;;5.60;;
28844;SDS011;15976;47.938;7.758;2023-06-04T06:07:14;9.38;;;5.25;;
28844;SDS011;15976;47.938;7.758;2023-06-04T06:09:49;8.27;;;5.40;;
28844;SDS011;15976;47.938;7.758;2023-06-04T06:12:26;9.40;;;5.53;;
28844;SDS011;15976;47.938;7.758;2023-06-04T06:17:55;10.82;;;5.28;;
28844;SDS011;15976;47.938;7.758;2023-06-04T06:20:24;10.48;;;5.80;;
28844;SDS011;15976;47.938;7.758;2023-06-04T06:22:51;9.15;;;5.53;;
28844;SDS011;15976;47.938;7.758;2023-06-04T06:25:21;8.45;;;5.80;;
28844;SDS011;15976;47.938;7.758;2023-06-04T06:27:57;10.02;;;5.90;;
28844;SDS011;15976;47.938;7.758;2023-06-04T06:30:26;9.13;;;5.97;;
28844;SDS011;15976;47.938;7.758;2023-06-04T06:32:53;7.82;;;5.55;;
28844;SDS011;15976;47.938;7.758;2023-06-04T06:35:22;12.15;;;6.10;;
28844;SDS011;15976;47.938;7.758;2023-06-04T06:37:49;6.28;;;5.63;;
28844;SDS011;15976;47.938;7.758;2023-06-04T06:40:16;9.23;;;5.57;;
28844;SDS011;15976;47.938;7.758;2023-06-04T06:42:47;10.93;;;6.13;;
28844;SDS011;15976;47.938;7.758;2023-06-04T06:45:15;10.10;;;6.03;;
28844;SDS011;15976;47.938;7.758;2023-06-04T06:47:42;8.02;;;6.13;;
28844;SDS011;15976;47.938;7.758;2023-06-04T06:50:09;9.32;;;6.43;;
28844;SDS011;15976;47.938;7.758;2023-06-04T06:52:37;8.68;;;6.03;;
28844;SDS011;15976;47.938;7.758;2023-06-04T06:55:05;10.18;;;6.03;;
28844;SDS011;15976;47.938;7.758;2023-06-04T06:57:37;8.55;;;6.10;;
28844;SDS011;15976;47.938;7.758;2023-06-04T07:00:04;9.43;;;7.07;;
28844;SDS011;15976;47.938;7.758;2023-06-04T07:02:32;9.77;;;6.72;;
28844;SDS011;15976;47.938;7.758;2023-06-04T07:05:01;9.23;;;6.47;;
28844;SDS011;15976;47.938;7.758;2023-06-04T07:07:29;10.55;;;6.35;;
28844;SDS011;15976;47.938;7.758;2023-06-04T07:09:59;9.88;;;6.38;;
28844;SDS011;15976;47.938;7.758;2023-06-04T07:12:27;12.00;;;7.03;;
28844;SDS011;15976;47.938;7.758;2023-06-04T07:14:55;8.18;;;6.20;;
28844;SDS011;15976;47.938;7.758;2023-06-04T07:17:22;10.35;;;7.03;;
28844;SDS011;15976;47.938;7.758;2023-06-04T07:19:49;10.63;;;5.85;;
28844;SDS011;15976;47.938;7.758;2023-06-04T07:22:15;7.82;;;5.60;;
28844;SDS011;15976;47.938;7.758;2023-06-04T07:24:43;8.35;;;5.88;;
28844;SDS011;15976;47.938;7.758;2023-06-04T07:27:14;11.07;;;5.93;;
28844;SDS011;15976;47.938;7.758;2023-06-04T07:29:42;10.32;;;5.80;;
28844;SDS011;15976;47.938;7.758;2023-06-04T07:32:13;11.38;;;5.85;;
28844;SDS011;15976;47.938;7.758;2023-06-04T07:34:40;10.75;;;6.13;;
28844;SDS011;15976;47.938;7.758;2023-06-04T07:37:08;11.10;;;6.43;;
28844;SDS011;15976;47.938;7.758;2023-06-04T07:39:36;8.57;;;5.65;;
28844;SDS011;15976;47.938;7.758;2023-06-04T07:42:04;8.32;;;5.97;;
28844;SDS011;15976;47.938;7.758;2023-06-04T07:44:33;9.07;;;6.47;;
28844;SDS011;15976;47.938;7.758;2023-06-04T07:47:01;12.20;;;6.03;;
28844;SDS011;15976;47.938;7.758;2023-06-04T07:49:28;8.30;;;6.03;;
28844;SDS011;15976;47.938;7.758;2023-06-04T07:51:55;10.32;;;6.07;;
28844;SDS011;15976;47.938;7.758;2023-06-04T07:54:21;8.35;;;6.20;;
28844;SDS011;15976;47.938;7.758;2023-06-04T07:56:48;10.30;;;6.22;;
28844;SDS011;15976;47.938;7.758;2023-06-04T07:59:16;10.55;;;5.95;;
28844;SDS011;15976;47.938;7.758;2023-06-04T08:01:43;10.93;;;6.22;;
28844;SDS011;15976;47.938;7.758;2023-06-04T08:04:13;15.85;;;6.18;;
28844;SDS011;15976;47.938;7.758;2023-06-04T08:06:42;9.73;;;6.28;;
28844;SDS011;15976;47.938;7.758;2023-06-04T08:09:11;9.02;;;5.50;;
28844;SDS011;15976;47.938;7.758;2023-06-04T08:11:38;6.78;;;5.15;;
28844;SDS011;15976;47.938;7.758;2023-06-04T08:14:08;8.80;;;5.15;;
28844;SDS011;15976;47.938;7.758;2023-06-04T08:16:34;7.75;;;4.88;;
28844;SDS011;15976;47.938;7.758;2023-06-04T08:19:02;7.28;;;5.00;;
28844;SDS011;15976;47.938;7.758;2023-06-04T08:21:29;7.75;;;4.95;;
28844;SDS011;15976;47.938;7.758;2023-06-04T08:23:56;9.38;;;4.57;;
28844;SDS011;15976;47.938;7.758;2023-06-04T08:26:26;7.93;;;4.57;;
28844;SDS011;15976;47.938;7.758;2023-06-04T08:28:54;10.10;;;4.47;;
28844;SDS011;15976;47.938;7.758;2023-06-04T08:31:23;9.02;;;4.60;;
28844;SDS011;15976;47.938;7.758;2023-06-04T08:33:51;7.50;;;4.30;;
28844;SDS011;15976;47.938;7.758;2023-06-04T08:36:18;7.75;;;4.60;;
28844;SDS011;15976;47.938;7.758;2023-06-04T08:38:45;7.60;;;4.25;;
28844;SDS011;15976;47.938;7.758;2023-06-04T08:44:12;6.00;;;4.22;;
28844;SDS011;15976;47.938;7.758;2023-06-04T08:46:42;9.27;;;4.07;;
28844;SDS011;15976;47.938;7.758;2023-06-04T08:49:12;5.72;;;3.53;;
28844;SDS011;15976;47.938;7.758;2023-06-04T08:51:39;6.13;;;3.83;;
28844;SDS011;15976;47.938;7.758;2023-06-04T08:54:08;7.07;;;3.67;;
28844;SDS011;15976;47.938;7.758;2023-06-04T08:56:37;9.02;;;3.78;;
28844;SDS011;15976;47.938;7.758;2023-06-04T08:59:05;8.05;;;3.45;;
28844;SDS011;15976;47.938;7.758;2023-06-04T09:01:34;7.68;;;3.67;;
28844;SDS011;15976;47.938;7.758;2023-06-04T09:04:04;7.00;;;3.50;;
28844;SDS011;15976;47.938;7.758;2023-06-04T09:09:04;6.78;;;3.70;;
28844;SDS011;15976;47.938;7.758;2023-06-04T09:11:36;5.75;;;3.83;;
28844;SDS011;15976;47.938;7.758;2023-06-04T09:14:08;8.75;;;3.78;;
28844;SDS011;15976;47.938;7.758;2023-06-04T09:16:48;5.93;;;3.55;;
28844;SDS011;15976;47.938;7.758;2023-06-04T09:19:20;6.65;;;3.58;;
28844;SDS011;15976;47.938;7.758;2023-06-04T09:24:21;8.35;;;4.05;;
28844;SDS011;15976;47.938;7.758;2023-06-04T09:26:50;10.65;;;4.53;;
28844;SDS011;15976;47.938;7.758;2023-06-04T09:29:17;8.57;;;3.90;;
28844;SDS011;15976;47.938;7.758;2023-06-04T09:31:45;7.65;;;4.18;;
28844;SDS011;15976;47.938;7.758;2023-06-04T09:34:14;10.07;;;4.35;;
28844;SDS011;15976;47.938;7.758;2023-06-04T09:36:43;6.35;;;4.22;;
28844;SDS011;15976;47.938;7.758;2023-06-04T09:39:16;9.00;;;4.10;;
28844;SDS011;15976;47.938;7.758;2023-06-04T09:41:44;6.32;;;4.43;;
28844;SDS011;15976;47.938;7.758;2023-06-04T09:44:11;6.00;;;4.30;;
28844;SDS011;15976;47.938;7.758;2023-06-04T09:46:38;8.73;;;4.13;;
28844;SDS011;15976;47.938;7.758;2023-06-04T09:49:07;7.45;;;4.50;;
28844;SDS011;15976;47.938;7.758;2023-06-04T09:51:34;10.32;;;4.93;;
28844;SDS011;15976;47.938;7.758;2023-06-04T09:54:14;6.75;;;4.82;;
28844;SDS011;15976;47.938;7.758;2023-06-04T09:56:43;9.15;;;5.18;;
28844;SDS011;15976;47.938;7.758;2023-06-04T09:59:17;10.82;;;5.25;;
28844;SDS011;15976;47.938;7.758;2023-06-04T10:01:49;5.97;;;4.72;;
28844;SDS011;15976;47.938;7.758;2023-06-04T10:04:25;6.22;;;5.07;;
28844;SDS011;15976;47.938;7.758;2023-06-04T10:07:02;8.55;;;5.47;;
28844;SDS011;15976;47.938;7.758;2023-06-04T10:09:32;10.53;;;6.20;;
28844;SDS011;15976;47.938;7.758;2023-06-04T10:12:01;7.13;;;6.10;;
28844;SDS011;15976;47.938;7.758;2023-06-04T10:14:34;9.70;;;5.82;;
28844;SDS011;15976;47.938;7.758;2023-06-04T10:17:06;8.77;;;5.78;;
28844;SDS011;15976;47.938;7.758;2023-06-04T10:19:36;6.93;;;4.68;;
28844;SDS011;15976;47.938;7.758;2023-06-04T10:22:05;5.78;;;4.75;;
28844;SDS011;15976;47.938;7.758;2023-06-04T10:24:32;8.32;;;4.55;;
28844;SDS011;15976;47.938;7.758;2023-06-04T10:26:59;6.65;;;4.47;;
28844;SDS011;15976;47.938;7.758;2023-06-04T10:29:27;5.28;;;4.00;;
28844;SDS011;15976;47.938;7.758;2023-06-04T10:31:57;5.75;;;4.43;;
28844;SDS011;15976;47.938;7.758;2023-06-04T10:34:25;8.38;;;4.68;;
28844;SDS011;15976;47.938;7.758;2023-06-04T10:36:57;6.65;;;4.78;;
28844;SDS011;15976;47.938;7.758;2023-06-04T10:39:25;7.70;;;4.30;;
28844;SDS011;15976;47.938;7.758;2023-06-04T10:44:28;7.28;;;4.47;;
28844;SDS011;15976;47.938;7.758;2023-06-04T10:46:58;5.07;;;4.50;;
28844;SDS011;15976;47.938;7.758;2023-06-04T10:49:26;6.20;;;4.65;;
28844;SDS011;15976;47.938;7.758;2023-06-04T10:51:54;5.57;;;4.70;;
28844;SDS011;15976;47.938;7.758;2023-06-04T10:54:29;6.97;;;4.82;;
28844;SDS011;15976;47.938;7.758;2023-06-04T10:56:56;6.57;;;5.30;;
28844;SDS011;15976;47.938;7.758;2023-06-04T10:59:23;8.35;;;5.28;;
28844;SDS011;15976;47.938;7.758;2023-06-04T11:01:51;8.60;;;5.10;;
28844;SDS011;15976;47.938;7.758;2023-06-04T11:04:22;6.45;;;5.57;;
28844;SDS011;15976;47.938;7.758;2023-06-04T11:09:31;8.43;;;5.43;;
28844;SDS011;15976;47.938;7.758;2023-06-04T11:12:00;10.45;;;5.22;;
28844;SDS011;15976;47.938;7.758;2023-06-04T11:14:28;5.97;;;4.90;;
28844;SDS011;15976;47.938;7.758;2023-06-04T11:16:55;6.68;;;4.88;;
28844;SDS011;15976;47.938;7.758;2023-06-04T11:19:22;8.88;;;4.70;;
28844;SDS011;15976;47.938;7.758;2023-06-04T11:21:50;7.10;;;4.30;;
28844;SDS011;15976;47.938;7.758;2023-06-04T11:24:17;5.97;;;4.40;;
28844;SDS011;15976;47.938;7.758;2023-06-04T11:26:44;6.35;;;4.38;;
28844;SDS011;15976;47.938;7.758;2023-06-04T11:29:25;8.77;;;4.53;;
28844;SDS011;15976;47.938;7.758;2023-06-04T11:31:53;7.88;;;4.93;;
28844;SDS011;15976;47.938;7.758;2023-06-04T11:34:27;8.70;;;4.70;;
28844;SDS011;15976;47.938;7.758;2023-06-04T11:36:55;7.38;;;4.55;;
28844;SDS011;15976;47.938;7.758;2023-06-04T11:39:34;6.00;;;4.28;;
28844;SDS011;15976;47.938;7.758;2023-06-04T11:42:04;5.88;;;4.45;;
28844;SDS011;15976;47.938;7.758;2023-06-04T11:44:33;7.60;;;4.53;;
28844;SDS011;15976;47.938;7.758;2023-06-04T11:47:01;5.68;;;4.78;;
28844;SDS011;15976;47.938;7.758;2023-06-04T11:49:33;5.80;;;4.50;;
28844;SDS011;15976;47.938;7.758;2023-06-04T11:52:03;7.97;;;4.55;;
28844;SDS011;15976;47.938;7.758;2023-06-04T11:54:31;6.47;;;4.40;;
28844;SDS011;15976;47.938;7.758;2023-06-04T11:57:03;6.45;;;4.32;;
28844;SDS011;15976;47.938;7.758;2023-06-04T11:59:31;5.90;;;4.18;;
28844;SDS011;15976;47.938;7.758;2023-06-04T12:01:59;6.40;;;4.75;;
28844;SDS011;15976;47.938;7.758;2023-06-04T12:04:29;5.93;;;4.35;;
28844;SDS011;15976;47.938;7.758;2023-06-04T12:06:57;6.10;;;4.35;;
28844;SDS011;15976;47.938;7.758;2023-06-04T12:09:32;7.93;;;4.40;;
28844;SDS011;15976;47.938;7.758;2023-06-04T12:12:05;6.10;;;4.40;;
28844;SDS011;15976;47.938;7.758;2023-06-04T12:14:33;5.85;;;4.30;;
28844;SDS011;15976;47.938;7.758;2023-06-04T12:17:01;5.57;;;4.22;;
28844;SDS011;15976;47.938;7.758;2023-06-04T12:19:33;5.95;;;4.45;;
28844;SDS011;15976;47.938;7.758;2023-06-04T12:22:12;6.65;;;4.43;;
28844;SDS011;15976;47.938;7.758;2023-06-04T12:24:49;6.43;;;4.50;;
28844;SDS011;15976;47.938;7.758;2023-06-04T12:27:20;4.35;;;3.88;;
28844;SDS011;15976;47.938;7.758;2023-06-04T12:30:00;10.27;;;4.60;;
28844;SDS011;15976;47.938;7.758;2023-06-04T12:32:28;6.10;;;4.55;;
28844;SDS011;15976;47.938;7.758;2023-06-04T12:34:56;5.45;;;4.38;;
28844;SDS011;15976;47.938;7.758;2023-06-04T12:37:23;6.18;;;4.35;;
28844;SDS011;15976;47.938;7.758;2023-06-04T12:39:54;5.70;;;4.35;;
28844;SDS011;15976;47.938;7.758;2023-06-04T12:42:21;6.95;;;4.40;;
28844;SDS011;15976;47.938;7.758;2023-06-04T12:44:49;6.07;;;4.05;;
28844;SDS011;15976;47.938;7.758;2023-06-04T12:47:16;5.85;;;4.10;;
28844;SDS011;15976;47.938;7.758;2023-06-04T12:49:44;14.73;;;4.28;;
28844;SDS011;15976;47.938;7.758;2023-06-04T12:52:11;5.68;;;3.95;;
28844;SDS011;15976;47.938;7.758;2023-06-04T12:54:41;7.10;;;3.97;;
28844;SDS011;15976;47.938;7.758;2023-06-04T12:57:08;7.45;;;4.07;;
28844;SDS011;15976;47.938;7.758;2023-06-04T12:59:36;5.38;;;4.13;;
28844;SDS011;15976;47.938;7.758;2023-06-04T13:02:03;6.95;;;4.65;;
28844;SDS011;15976;47.938;7.758;2023-06-04T13:04:30;6.90;;;4.22;;
28844;SDS011;15976;47.938;7.758;2023-06-04T13:06:57;4.78;;;3.70;;
28844;SDS011;15976;47.938;7.758;2023-06-04T13:09:26;7.75;;;4.28;;
28844;SDS011;15976;47.938;7.758;2023-06-04T13:11:55;5.20;;;3.97;;
28844;SDS011;15976;47.938;7.758;2023-06-04T13:14:22;4.97;;;4.30;;
28844;SDS011;15976;47.938;7.758;2023-06-04T13:16:49;5.43;;;4.20;;
28844;SDS011;15976;47.938;7.758;2023-06-04T13:19:21;6.00;;;3.83;;
28844;SDS011;15976;47.938;7.758;2023-06-04T13:21:49;4.20;;;3.45;;
28844;SDS011;15976;47.938;7.758;2023-06-04T13:24:16;4.85;;;4.07;;
28844;SDS011;15976;47.938;7.758;2023-06-04T13:26:43;6.45;;;3.83;;
28844;SDS011;15976;47.938;7.758;2023-06-04T13:29:10;5.30;;;3.97;;
28844;SDS011;15976;47.938;7.758;2023-06-04T13:31:37;4.88;;;3.83;;
28844;SDS011;15976;47.938;7.758;2023-06-04T13:34:06;4.55;;;3.90;;
28844;SDS011;15976;47.938;7.758;2023-06-04T13:36:52;7.75;;;4.28;;
28844;SDS011;15976;47.938;7.758;2023-06-04T13:39:19;7.07;;;3.80;;
28844;SDS011;15976;47.938;7.758;2023-06-04T13:41:46;5.60;;;4.10;;
28844;SDS011;15976;47.938;7.758;2023-06-04T13:44:13;7.78;;;3.70;;
28844;SDS011;15976;47.938;7.758;2023-06-04T13:46:41;5.43;;;3.78;;
28844;SDS011;15976;47.938;7.758;2023-06-04T13:49:08;4.45;;;3.95;;
28844;SDS011;15976;47.938;7.758;2023-06-04T13:51:36;6.57;;;3.75;;
28844;SDS011;15976;47.938;7.758;2023-06-04T13:54:03;7.88;;;4.15;;
28844;SDS011;15976;47.938;7.758;2023-06-04T13:56:30;5.28;;;3.72;;
28844;SDS011;15976;47.938;7.758;2023-06-04T13:58:57;8.25;;;3.95;;
28844;SDS011;15976;47.938;7.758;2023-06-04T14:01:24;4.75;;;3.85;;
28844;SDS011;15976;47.938;7.758;2023-06-04T14:03:51;4.88;;;3.67;;
28844;SDS011;15976;47.938;7.758;2023-06-04T14:06:20;6.75;;;3.85;;
28844;SDS011;15976;47.938;7.758;2023-06-04T14:08:47;7.70;;;3.92;;
28844;SDS011;15976;47.938;7.758;2023-06-04T14:11:14;5.93;;;3.85;;
28844;SDS011;15976;47.938;7.758;2023-06-04T14:13:45;6.13;;;3.80;;
28844;SDS011;15976;47.938;7.758;2023-06-04T14:16:19;7.63;;;4.10;;
28844;SDS011;15976;47.938;7.758;2023-06-04T14:18:46;6.80;;;4.30;;
28844;SDS011;15976;47.938;7.758;2023-06-04T14:21:13;6.30;;;3.78;;
28844;SDS011;15976;47.938;7.758;2023-06-04T14:23:40;6.25;;;4.20;;
28844;SDS011;15976;47.938;7.758;2023-06-04T14:26:07;7.43;;;4.22;;
28844;SDS011;15976;47.938;7.758;2023-06-04T14:28:34;8.30;;;4.10;;
28844;SDS011;15976;47.938;7.758;2023-06-04T14:31:01;5.57;;;3.95;;
28844;SDS011;15976;47.938;7.758;2023-06-04T14:33:29;5.05;;;3.88;;
28844;SDS011;15976;47.938;7.758;2023-06-04T14:35:56;5.97;;;3.88;;
28844;SDS011;15976;47.938;7.758;2023-06-04T14:38:23;6.07;;;4.18;;
28844;SDS011;15976;47.938;7.758;2023-06-04T14:40:50;6.85;;;4.40;;
28844;SDS011;15976;47.938;7.758;2023-06-04T14:43:17;5.75;;;4.15;;
28844;SDS011;15976;47.938;7.758;2023-06-04T14:45:44;5.22;;;4.15;;
28844;SDS011;15976;47.938;7.758;2023-06-04T14:48:15;7.78;;;4.55;;
28844;SDS011;15976;47.938;7.758;2023-06-04T14:50:42;7.22;;;4.32;;
28844;SDS011;15976;47.938;7.758;2023-06-04T14:53:10;6.07;;;4.18;;
28844;SDS011;15976;47.938;7.758;2023-06-04T14:55:38;7.10;;;4.50;;
28844;SDS011;15976;47.938;7.758;2023-06-04T14:58:06;4.70;;;4.03;;
28844;SDS011;15976;47.938;7.758;2023-06-04T15:00:33;9.18;;;4.30;;
28844;SDS011;15976;47.938;7.758;2023-06-04T15:03:00;5.57;;;4.28;;
28844;SDS011;15976;47.938;7.758;2023-06-04T15:05:32;5.20;;;4.15;;
28844;SDS011;15976;47.938;7.758;2023-06-04T15:08:00;4.85;;;4.10;;
28844;SDS011;15976;47.938;7.758;2023-06-04T15:10:28;5.30;;;4.10;;
28844;SDS011;15976;47.938;7.758;2023-06-04T15:12:56;6.72;;;4.18;;
28844;SDS011;15976;47.938;7.758;2023-06-04T15:15:23;6.68;;;4.57;;
28844;SDS011;15976;47.938;7.758;2023-06-04T15:17:52;6.63;;;4.68;;
28844;SDS011;15976;47.938;7.758;2023-06-04T15:20:19;6.38;;;4.20;;